Time;durP1;ratioP1;P1;durP2;ratioP2;P2;SDS_P1;SDS_P2;PMS_P1;PMS_P2;Temp;Humidity;BMP_temperature;BMP_pressure;BME280_temperature;BME280_humidity;BME280_pressure;Samples;Min_cycle;Max_cycle;Signal;HPM_P1;HPM_P2
2023/04/20 00:01:47;;;;;;;4.50;4.10;;;8.70;49.00;;;;;;5066203;28;20411;-69
2023/04/20 00:04:15;;;;;;;4.60;4.10;;;8.70;49.30;;;;;;5066301;28;20468;-68
2023/04/20 00:06:43;;;;;;;4.43;4.03;;;8.60;49.20;;;;;;5066130;28;20789;-69
2023/04/20 00:09:13;;;;;;;6.65;4.20;;;8.70;49.10;;;;;;5065733;28;20424;-68
2023/04/20 00:11:40;;;;;;;4.82;4.03;;;8.60;48.90;;;;;;5067006;28;21487;-69
2023/04/20 00:14:07;;;;;;;4.65;4.22;;;8.60;49.10;;;;;;5069759;28;20933;-69
2023/04/20 00:16:34;;;;;;;6.70;4.40;;;8.60;48.90;;;;;;5065803;28;20430;-68
2023/04/20 00:19:01;;;;;;;4.60;4.20;;;8.60;48.80;;;;;;5064986;28;20427;-69
2023/04/20 00:21:27;;;;;;;4.50;4.00;;;8.60;48.50;;;;;;5064895;28;20882;-68
2023/04/20 00:23:55;;;;;;;4.65;3.55;;;8.50;49.50;;;;;;5064011;28;20424;-68
2023/04/20 00:26:22;;;;;;;4.78;4.00;;;8.50;49.50;;;;;;5064764;28;20430;-69
2023/04/20 00:28:50;;;;;;;4.75;3.78;;;8.50;49.40;;;;;;5056783;28;20447;-68
2023/04/20 00:31:17;;;;;;;5.13;4.03;;;8.50;50.30;;;;;;5064210;28;20747;-68
2023/04/20 00:33:43;;;;;;;6.40;4.28;;;8.50;49.90;;;;;;5064628;28;20435;-69
2023/04/20 00:36:10;;;;;;;5.05;4.10;;;8.60;49.40;;;;;;5065615;28;20423;-68
2023/04/20 00:38:37;;;;;;;5.20;3.95;;;8.60;50.00;;;;;;5075985;28;20413;-69
2023/04/20 00:41:05;;;;;;;4.80;3.80;;;8.70;49.30;;;;;;5066939;28;20436;-69
2023/04/20 00:43:32;;;;;;;4.72;3.80;;;8.70;49.60;;;;;;5061515;28;20419;-68
2023/04/20 00:45:59;;;;;;;4.93;3.90;;;8.70;49.10;;;;;;5078499;28;20427;-68
2023/04/20 00:48:25;;;;;;;4.80;4.30;;;8.80;49.00;;;;;;5065765;28;20565;-68
2023/04/20 00:50:52;;;;;;;4.90;4.00;;;8.80;48.30;;;;;;5065428;28;20523;-68
2023/04/20 00:53:19;;;;;;;4.50;3.60;;;8.80;48.10;;;;;;5076170;28;20418;-68
2023/04/20 00:55:47;;;;;;;4.80;4.30;;;8.90;48.00;;;;;;5064637;28;20431;-68
2023/04/20 00:58:15;;;;;;;4.22;3.72;;;9.00;47.80;;;;;;5064935;28;20421;-68
2023/04/20 01:00:41;;;;;;;4.75;3.55;;;9.00;47.80;;;;;;5064906;28;20427;-68
2023/04/20 01:03:08;;;;;;;4.55;3.55;;;9.00;47.20;;;;;;5076717;28;20414;-68
2023/04/20 01:05:35;;;;;;;4.32;3.78;;;9.00;47.70;;;;;;5065679;28;20791;-68
2023/04/20 01:08:02;;;;;;;5.90;4.00;;;9.00;48.00;;;;;;5061901;28;20433;-67
2023/04/20 01:10:29;;;;;;;5.00;3.80;;;8.90;47.70;;;;;;5070543;28;20411;-68
2023/04/20 01:12:56;;;;;;;4.07;3.67;;;8.90;48.20;;;;;;5066934;28;20428;-69
2023/04/20 01:15:24;;;;;;;4.60;3.60;;;8.90;48.10;;;;;;5051664;28;20414;-68
2023/04/20 01:17:51;;;;;;;5.07;4.10;;;8.90;48.50;;;;;;5071012;28;20436;-68
2023/04/20 01:20:19;;;;;;;4.20;3.80;;;9.00;48.60;;;;;;5072454;28;20479;-68
2023/04/20 01:22:48;;;;;;;4.10;3.70;;;8.90;49.00;;;;;;5063279;28;20578;-67
2023/04/20 01:25:15;;;;;;;4.00;3.70;;;9.00;50.00;;;;;;5061771;28;20438;-68
2023/04/20 01:27:42;;;;;;;4.90;4.05;;;9.00;48.90;;;;;;5060186;28;21100;-68
2023/04/20 01:30:10;;;;;;;5.20;3.63;;;9.00;49.50;;;;;;5063800;28;20778;-68
2023/04/20 01:32:37;;;;;;;5.40;4.72;;;9.00;49.60;;;;;;5065116;28;20415;-68
2023/04/20 01:35:04;;;;;;;7.20;4.47;;;9.00;49.70;;;;;;5075630;28;20427;-68
2023/04/20 01:37:31;;;;;;;6.60;4.00;;;9.00;49.50;;;;;;5077802;28;20414;-68
2023/04/20 01:39:59;;;;;;;5.00;4.50;;;9.00;50.00;;;;;;5071818;28;20513;-68
2023/04/20 01:42:26;;;;;;;4.97;4.40;;;9.00;50.60;;;;;;5063361;28;20485;-68
2023/04/20 01:44:53;;;;;;;5.82;4.20;;;9.00;51.50;;;;;;5058407;28;20797;-68
2023/04/20 01:47:19;;;;;;;5.47;4.20;;;9.00;52.10;;;;;;5064619;28;21038;-68
2023/04/20 01:49:46;;;;;;;4.68;4.22;;;9.00;51.50;;;;;;5067039;28;20419;-68
2023/04/20 01:52:13;;;;;;;5.25;4.60;;;9.00;52.10;;;;;;5066691;28;20760;-68
2023/04/20 01:54:40;;;;;;;4.60;3.88;;;9.00;52.90;;;;;;5067158;28;20522;-68
2023/04/20 01:57:08;;;;;;;5.18;4.05;;;9.00;52.70;;;;;;5066178;28;20754;-68
2023/04/20 01:59:34;;;;;;;5.60;4.45;;;9.00;53.20;;;;;;5065877;28;20431;-68
2023/04/20 02:02:01;;;;;;;4.68;4.18;;;9.00;53.60;;;;;;5066474;28;20781;-68
2023/04/20 02:04:28;;;;;;;4.97;4.32;;;9.00;54.10;;;;;;5067229;28;20935;-68
2023/04/20 02:06:55;;;;;;;5.70;4.20;;;9.00;54.00;;;;;;5061413;28;20446;-68
2023/04/20 02:09:21;;;;;;;4.93;4.53;;;9.00;55.30;;;;;;5066528;28;20415;-68
2023/04/20 02:11:48;;;;;;;4.70;4.00;;;9.00;54.50;;;;;;5065611;28;20442;-68
2023/04/20 02:14:16;;;;;;;5.25;4.57;;;9.00;54.50;;;;;;5059597;28;20419;-68
2023/04/20 02:16:43;;;;;;;5.15;4.35;;;9.00;54.80;;;;;;5067879;28;20415;-68
2023/04/20 02:19:09;;;;;;;6.00;4.50;;;8.90;54.90;;;;;;5067330;28;20508;-68
2023/04/20 02:21:36;;;;;;;5.57;4.43;;;8.90;55.20;;;;;;5062869;28;20492;-68
2023/04/20 02:24:04;;;;;;;5.30;4.20;;;8.90;55.40;;;;;;5067773;28;20465;-68
2023/04/20 02:26:30;;;;;;;4.85;4.40;;;8.90;55.70;;;;;;5070879;28;20918;-68
2023/04/20 02:28:57;;;;;;;4.70;4.30;;;8.90;55.10;;;;;;5065732;28;20454;-68
2023/04/20 02:31:25;;;;;;;7.82;4.57;;;8.90;55.40;;;;;;5066493;28;20751;-68
2023/04/20 02:33:52;;;;;;;4.97;4.30;;;9.00;55.60;;;;;;5066940;28;20503;-68
2023/04/20 02:36:19;;;;;;;5.03;4.63;;;9.00;55.50;;;;;;5064968;28;20605;-68
2023/04/20 02:38:45;;;;;;;5.30;4.80;;;9.00;54.90;;;;;;5067554;28;20423;-68
2023/04/20 02:41:12;;;;;;;4.60;4.20;;;9.00;55.90;;;;;;5066663;28;20518;-68
2023/04/20 02:43:39;;;;;;;5.27;4.23;;;9.00;55.60;;;;;;5061718;28;20469;-68
2023/04/20 02:46:06;;;;;;;5.50;4.10;;;9.00;55.70;;;;;;5059452;28;20922;-68
2023/04/20 02:48:34;;;;;;;5.20;3.90;;;9.00;56.00;;;;;;5066477;28;20564;-68
2023/04/20 02:51:01;;;;;;;5.80;4.70;;;9.00;55.70;;;;;;5051705;28;20415;-68
2023/04/20 02:53:27;;;;;;;5.30;4.60;;;9.00;55.30;;;;;;5058622;28;20765;-68
2023/04/20 02:55:54;;;;;;;5.07;4.63;;;9.00;55.60;;;;;;5065903;28;20457;-68
2023/04/20 02:58:21;;;;;;;5.30;4.63;;;9.00;56.00;;;;;;5060389;28;20436;-68
2023/04/20 03:00:48;;;;;;;6.45;5.10;;;9.00;56.10;;;;;;5065125;28;20443;-68
2023/04/20 03:03:14;;;;;;;5.00;4.50;;;9.00;56.00;;;;;;5064724;28;20438;-68
2023/04/20 03:05:43;;;;;;;5.07;4.68;;;9.00;55.60;;;;;;5072411;28;20465;-69
2023/04/20 03:08:09;;;;;;;5.63;4.40;;;9.00;55.30;;;;;;5071197;28;20427;-68
2023/04/20 03:10:36;;;;;;;5.18;4.75;;;9.00;54.30;;;;;;5065812;28;20411;-69
2023/04/20 03:13:03;;;;;;;4.38;3.97;;;8.90;54.00;;;;;;5056181;28;20905;-68
2023/04/20 03:15:30;;;;;;;5.97;4.40;;;8.90;53.80;;;;;;5073305;28;20410;-68
2023/04/20 03:17:57;;;;;;;8.37;4.60;;;8.90;53.40;;;;;;5070984;28;20422;-68
2023/04/20 03:20:23;;;;;;;4.65;3.83;;;8.90;53.20;;;;;;5064571;28;20533;-68
2023/04/20 03:22:51;;;;;;;4.53;3.70;;;8.90;52.10;;;;;;5064463;28;20770;-68
2023/04/20 03:25:18;;;;;;;4.38;3.92;;;8.90;52.50;;;;;;5065024;28;20450;-68
2023/04/20 03:27:46;;;;;;;5.45;4.30;;;8.90;52.50;;;;;;5059381;28;20429;-68
2023/04/20 03:30:13;;;;;;;6.18;4.47;;;8.90;53.70;;;;;;5062023;28;20550;-68
2023/04/20 03:32:40;;;;;;;4.80;4.30;;;8.90;55.20;;;;;;5064830;28;20430;-68
2023/04/20 03:35:08;;;;;;;4.85;4.35;;;8.90;53.00;;;;;;5065802;28;20610;-68
2023/04/20 03:37:36;;;;;;;5.07;4.10;;;8.80;51.70;;;;;;5065463;28;20905;-67
2023/04/20 03:40:06;;;;;;;5.18;4.20;;;8.80;52.50;;;;;;5065930;28;20886;-68
2023/04/20 03:42:32;;;;;;;5.97;4.30;;;8.80;51.90;;;;;;5065993;28;20443;-68
2023/04/20 03:44:59;;;;;;;5.07;4.10;;;8.80;50.60;;;;;;5064630;28;20427;-68
2023/04/20 03:47:26;;;;;;;4.70;3.80;;;8.70;49.40;;;;;;5065565;28;20423;-68
2023/04/20 03:49:53;;;;;;;4.40;4.00;;;8.70;49.70;;;;;;5065589;28;20419;-68
2023/04/20 03:52:19;;;;;;;5.05;4.15;;;8.60;49.60;;;;;;5065291;28;20431;-68
2023/04/20 03:54:46;;;;;;;6.50;4.20;;;8.60;50.40;;;;;;5065504;28;20419;-68
2023/04/20 03:57:14;;;;;;;5.75;4.03;;;8.60;49.80;;;;;;5064371;28;20434;-68
2023/04/20 03:59:41;;;;;;;4.30;3.90;;;8.60;49.90;;;;;;5066447;28;20422;-67
2023/04/20 04:02:09;;;;;;;4.97;4.00;;;8.50;50.90;;;;;;5066526;28;20412;-67
2023/04/20 04:04:36;;;;;;;5.32;4.00;;;8.50;50.70;;;;;;5066302;28;20439;-68
2023/04/20 04:07:03;;;;;;;5.85;3.90;;;8.50;51.30;;;;;;5065751;28;20817;-68
2023/04/20 04:09:30;;;;;;;5.43;3.90;;;8.60;51.70;;;;;;5065725;28;20511;-68
2023/04/20 04:11:57;;;;;;;4.72;4.20;;;8.60;51.70;;;;;;5065360;28;20439;-68
2023/04/20 04:14:25;;;;;;;5.30;4.80;;;8.50;51.40;;;;;;5070987;28;20783;-68
2023/04/20 04:16:52;;;;;;;4.97;4.25;;;8.50;51.10;;;;;;5066503;28;20910;-68
2023/04/20 04:19:18;;;;;;;4.32;3.80;;;8.40;52.10;;;;;;5066215;28;20415;-67
2023/04/20 04:21:45;;;;;;;5.00;4.50;;;8.50;52.40;;;;;;5062600;28;20866;-67
2023/04/20 04:24:12;;;;;;;5.80;4.30;;;8.50;52.10;;;;;;5066062;28;20415;-68
2023/04/20 04:26:38;;;;;;;5.55;4.43;;;8.50;52.20;;;;;;5055522;28;20443;-68
2023/04/20 04:29:05;;;;;;;5.50;4.65;;;8.50;51.90;;;;;;5067597;28;20419;-68
2023/04/20 04:31:33;;;;;;;4.65;4.25;;;8.50;52.50;;;;;;5066901;28;20476;-68
2023/04/20 04:34:00;;;;;;;5.13;4.57;;;8.50;53.00;;;;;;5060960;28;20431;-67
2023/04/20 04:36:27;;;;;;;6.13;4.50;;;8.50;52.60;;;;;;5066751;28;20439;-68
2023/04/20 04:38:54;;;;;;;7.18;4.75;;;8.50;52.90;;;;;;5068663;28;20438;-68
2023/04/20 04:41:22;;;;;;;4.70;4.30;;;8.50;53.80;;;;;;5066302;28;20430;-67
2023/04/20 04:43:49;;;;;;;6.27;4.70;;;8.50;54.50;;;;;;5067362;28;20431;-67
2023/04/20 04:46:16;;;;;;;5.57;4.97;;;8.50;56.20;;;;;;5060804;28;20436;-66
2023/04/20 04:48:45;;;;;;;5.37;4.63;;;8.50;58.60;;;;;;5062141;28;20511;-68
2023/04/20 04:51:12;;;;;;;5.40;4.90;;;8.50;59.90;;;;;;5068637;28;20797;-69
2023/04/20 04:53:38;;;;;;;5.20;4.70;;;8.50;59.50;;;;;;5067542;28;20427;-69
2023/04/20 04:56:06;;;;;;;5.68;4.80;;;8.50;59.80;;;;;;5068500;28;20429;-69
2023/04/20 04:58:33;;;;;;;5.53;4.93;;;8.40;60.20;;;;;;5069949;28;20452;-70
2023/04/20 05:01:00;;;;;;;6.38;4.95;;;8.40;65.40;;;;;;5079631;28;20500;-69
2023/04/20 05:03:26;;;;;;;5.40;4.90;;;8.40;65.80;;;;;;5071885;28;20522;-70
2023/04/20 05:05:55;;;;;;;6.20;4.72;;;8.30;71.00;;;;;;5068350;28;20447;-71
2023/04/20 05:08:23;;;;;;;6.45;5.40;;;8.30;70.30;;;;;;5069290;28;20415;-71
2023/04/20 05:10:50;;;;;;;6.60;5.60;;;8.30;75.40;;;;;;5062769;28;20896;-71
2023/04/20 05:13:17;;;;;;;6.72;5.60;;;8.20;76.50;;;;;;5065767;28;20428;-73
2023/04/20 05:15:43;;;;;;;6.60;5.90;;;8.10;80.00;;;;;;5066079;28;20483;-69
2023/04/20 05:18:10;;;;;;;7.00;5.80;;;8.10;83.80;;;;;;5068648;28;20643;-71
2023/04/20 05:20:37;;;;;;;6.10;5.50;;;8.00;83.00;;;;;;5070371;28;20427;-70
2023/04/20 05:23:05;;;;;;;6.47;5.90;;;8.00;84.90;;;;;;5069353;28;20431;-68
2023/04/20 05:25:32;;;;;;;6.55;5.90;;;8.00;86.40;;;;;;5068484;28;20439;-70
2023/04/20 05:27:59;;;;;;;6.28;5.68;;;8.00;84.10;;;;;;5061883;28;20766;-72
2023/04/20 05:30:26;;;;;;;8.68;5.80;;;8.00;81.50;;;;;;5062556;28;20432;-67
2023/04/20 05:32:52;;;;;;;7.28;6.57;;;8.00;80.50;;;;;;5062345;28;20663;-69
2023/04/20 05:35:20;;;;;;;6.43;5.45;;;8.00;82.70;;;;;;5070000;28;20415;-70
2023/04/20 05:37:47;;;;;;;7.00;6.28;;;8.00;81.50;;;;;;5068110;28;20449;-69
2023/04/20 05:40:15;;;;;;;9.13;6.60;;;8.00;84.00;;;;;;5063015;28;20528;-69
2023/04/20 05:42:42;;;;;;;8.98;6.70;;;8.10;83.70;;;;;;5063776;28;20443;-69
2023/04/20 05:45:10;;;;;;;8.23;6.63;;;8.10;80.70;;;;;;5068511;28;20894;-68
2023/04/20 05:47:37;;;;;;;6.70;6.10;;;8.10;81.40;;;;;;5069861;28;20459;-70
2023/04/20 05:50:04;;;;;;;8.10;6.80;;;8.10;80.80;;;;;;5063567;28;20418;-69
2023/04/20 05:52:30;;;;;;;6.80;6.20;;;8.20;79.90;;;;;;5063534;28;20516;-69
2023/04/20 05:54:58;;;;;;;7.25;6.25;;;8.20;79.90;;;;;;5059044;28;20435;-68
2023/04/20 05:57:26;;;;;;;7.30;5.90;;;8.20;78.00;;;;;;5065949;28;20485;-65
2023/04/20 05:59:54;;;;;;;6.70;5.70;;;8.20;77.30;;;;;;5064759;28;20685;-73
2023/04/20 06:02:21;;;;;;;6.60;5.80;;;8.20;78.30;;;;;;5063681;28;20438;-73
2023/04/20 06:04:48;;;;;;;8.30;6.00;;;8.30;78.30;;;;;;5064954;28;20913;-72
2023/04/20 06:07:14;;;;;;;7.10;6.30;;;8.30;77.40;;;;;;5072543;28;20446;-73
2023/04/20 06:09:41;;;;;;;7.35;6.65;;;8.30;78.10;;;;;;5066840;28;20752;-73
2023/04/20 06:12:08;;;;;;;6.90;6.30;;;8.30;78.00;;;;;;5070261;28;20439;-74
2023/04/20 06:14:36;;;;;;;7.07;6.40;;;8.20;80.70;;;;;;5083494;28;20421;-74
2023/04/20 06:17:03;;;;;;;8.05;6.43;;;8.20;82.20;;;;;;5074044;28;20431;-74
2023/04/20 06:19:30;;;;;;;7.75;6.70;;;8.20;81.40;;;;;;5093826;28;20413;-73
2023/04/20 06:21:57;;;;;;;7.50;6.80;;;8.20;82.10;;;;;;5087908;28;20435;-75
2023/04/20 06:24:24;;;;;;;7.90;7.20;;;8.10;86.10;;;;;;5082015;28;20459;-77
2023/04/20 06:26:52;;;;;;;8.50;7.70;;;8.10;89.60;;;;;;5074840;28;20424;-76
2023/04/20 06:29:19;;;;;;;8.48;7.78;;;8.00;91.40;;;;;;5078446;28;20432;-75
2023/04/20 06:31:47;;;;;;;9.27;8.50;;;7.90;93.30;;;;;;5076973;28;20510;-73
2023/04/20 06:34:15;;;;;;;11.33;10.33;;;7.80;94.40;;;;;;5083364;28;20469;-72
2023/04/20 06:36:42;;;;;;;10.10;9.10;;;7.70;96.50;;;;;;5081250;28;20431;-72
2023/04/20 06:39:10;;;;;;;9.50;8.60;;;7.70;97.00;;;;;;5074394;28;20572;-74
2023/04/20 06:41:37;;;;;;;10.98;10.07;;;7.60;97.90;;;;;;5069915;28;20960;-74
2023/04/20 06:44:04;;;;;;;10.20;9.30;;;7.70;99.00;;;;;;5070110;28;20447;-73
2023/04/20 06:46:31;;;;;;;11.40;10.20;;;7.70;99.90;;;;;;5070028;28;20437;-74
2023/04/20 06:48:59;;;;;;;11.10;10.00;;;7.60;99.50;;;;;;5071911;28;20678;-73
2023/04/20 06:51:27;;;;;;;11.68;10.68;;;7.60;99.90;;;;;;5066565;28;20493;-74
2023/04/20 06:53:54;;;;;;;11.63;10.57;;;7.60;99.90;;;;;;5077916;28;20426;-73
2023/04/20 06:56:21;;;;;;;13.77;12.47;;;7.60;99.90;;;;;;5066525;28;20509;-74
2023/04/20 06:58:48;;;;;;;14.48;13.18;;;7.60;99.90;;;;;;5066545;28;20432;-73
2023/04/20 07:01:15;;;;;;;12.80;11.70;;;7.70;99.90;;;;;;5072218;28;20433;-74
2023/04/20 07:03:42;;;;;;;11.37;10.47;;;7.70;99.90;;;;;;5073325;28;20734;-73
2023/04/20 07:06:10;;;;;;;10.85;9.95;;;7.70;99.90;;;;;;5069455;28;20487;-75
2023/04/20 07:08:40;;;;;;;11.00;10.00;;;7.70;99.90;;;;;;5068987;28;20518;-74
2023/04/20 07:11:07;;;;;;;11.20;10.30;;;7.70;99.90;;;;;;5062165;28;20439;-74
2023/04/20 07:13:34;;;;;;;11.57;10.57;;;7.70;99.90;;;;;;5073841;28;20418;-75
2023/04/20 07:16:01;;;;;;;11.75;10.75;;;7.70;99.90;;;;;;5066814;28;20513;-73
2023/04/20 07:18:28;;;;;;;11.70;10.70;;;7.90;99.90;;;;;;5081980;28;20445;-74
2023/04/20 07:20:54;;;;;;;11.57;10.57;;;7.90;99.90;;;;;;5075993;28;20485;-72
2023/04/20 07:23:22;;;;;;;10.70;9.80;;;7.90;99.90;;;;;;5071938;28;20872;-72
2023/04/20 07:25:49;;;;;;;10.85;10.00;;;8.00;99.90;;;;;;5074982;28;20434;-72
2023/04/20 07:28:16;;;;;;;11.40;10.50;;;8.00;99.90;;;;;;5070905;28;20460;-73
2023/04/20 07:30:43;;;;;;;10.65;9.82;;;8.00;99.90;;;;;;5067921;28;20443;-72
2023/04/20 07:33:10;;;;;;;11.57;10.57;;;8.00;99.90;;;;;;5076283;28;20430;-74
2023/04/20 07:35:37;;;;;;;11.00;10.00;;;8.00;99.90;;;;;;5060052;28;21068;-72
2023/04/20 07:38:04;;;;;;;9.90;9.00;;;8.10;99.90;;;;;;5065829;28;20438;-75
2023/04/20 07:40:32;;;;;;;10.10;9.30;;;8.10;99.90;;;;;;5076021;28;20430;-75
2023/04/20 07:42:58;;;;;;;10.20;9.40;;;8.20;99.90;;;;;;5063648;28;20435;-76
2023/04/20 07:45:25;;;;;;;9.30;8.60;;;8.20;99.90;;;;;;5059655;28;20468;-74
2023/04/20 07:47:54;;;;;;;8.50;7.90;;;8.20;99.90;;;;;;5062980;28;20428;-75
2023/04/20 07:50:21;;;;;;;8.68;8.07;;;8.20;99.90;;;;;;5067358;28;20921;-75
2023/04/20 07:52:48;;;;;;;7.47;6.88;;;8.30;99.90;;;;;;5068557;28;20538;-73
2023/04/20 07:55:16;;;;;;;7.80;7.23;;;8.30;99.90;;;;;;5067621;28;20621;-75
2023/04/20 07:57:45;;;;;;;8.95;8.05;;;8.20;99.90;;;;;;5065343;28;20873;-74
2023/04/20 08:00:13;;;;;;;8.45;7.75;;;8.20;99.90;;;;;;5063573;28;20524;-75
2023/04/20 08:02:40;;;;;;;7.88;7.18;;;8.30;99.90;;;;;;5074061;28;20442;-74
2023/04/20 08:05:08;;;;;;;7.27;6.77;;;8.30;99.90;;;;;;5069062;28;20538;-74
2023/04/20 08:07:35;;;;;;;6.93;6.43;;;8.30;99.90;;;;;;5068772;28;20427;-74
2023/04/20 08:10:02;;;;;;;8.03;7.43;;;8.30;99.90;;;;;;5063877;28;20471;-74
2023/04/20 08:12:29;;;;;;;9.90;9.10;;;8.30;99.90;;;;;;5060490;28;20499;-74
2023/04/20 08:14:59;;;;;;;8.00;7.30;;;8.40;99.90;;;;;;5061620;28;20590;-73
2023/04/20 08:17:26;;;;;;;6.90;6.40;;;8.40;99.90;;;;;;5061274;28;20458;-73
2023/04/20 08:19:52;;;;;;;7.10;6.50;;;8.40;99.90;;;;;;5062528;28;20435;-73
2023/04/20 08:22:19;;;;;;;6.32;5.82;;;8.50;99.90;;;;;;5063874;28;20450;-74
2023/04/20 08:24:46;;;;;;;6.30;5.90;;;8.50;99.90;;;;;;5063198;28;20507;-73
2023/04/20 08:27:13;;;;;;;6.25;5.80;;;8.40;99.90;;;;;;5066060;28;20512;-77
2023/04/20 08:29:40;;;;;;;5.93;5.43;;;8.50;99.90;;;;;;5062892;28;20442;-76
2023/04/20 08:32:08;;;;;;;5.20;4.80;;;8.50;99.90;;;;;;5067163;28;22360;-74
2023/04/20 08:34:35;;;;;;;5.65;5.25;;;8.40;99.10;;;;;;5074990;28;20899;-75
2023/04/20 08:37:02;;;;;;;5.45;5.05;;;8.40;99.30;;;;;;5065409;28;20428;-75
2023/04/20 08:39:29;;;;;;;5.97;5.57;;;8.30;98.50;;;;;;5065893;28;20477;-76
2023/04/20 08:41:56;;;;;;;5.30;4.90;;;8.20;99.40;;;;;;5064987;28;20465;-74
2023/04/20 08:44:24;;;;;;;5.50;5.10;;;8.30;99.90;;;;;;5065959;28;20485;-74
2023/04/20 08:46:51;;;;;;;5.25;4.75;;;8.30;99.50;;;;;;5067541;28;20470;-74
2023/04/20 08:49:20;;;;;;;6.18;5.22;;;8.30;98.80;;;;;;5068744;28;20968;-75
2023/04/20 08:51:48;;;;;;;5.90;5.30;;;8.30;98.00;;;;;;5068279;28;20565;-71
2023/04/20 08:54:15;;;;;;;5.70;5.20;;;8.40;97.20;;;;;;5069718;28;20470;-70
2023/04/20 08:56:43;;;;;;;5.10;4.70;;;8.50;99.00;;;;;;5070735;28;20546;-70
2023/04/20 08:59:12;;;;;;;5.50;5.00;;;8.60;96.60;;;;;;5078283;28;20453;-70
2023/04/20 09:01:40;;;;;;;5.88;5.38;;;8.70;97.80;;;;;;5068094;28;20437;-70
2023/04/20 09:04:16;;;;;;;8.23;7.47;;;8.80;96.80;;;;;;5064946;28;20542;-71
2023/04/20 09:06:46;;;;;;;12.60;11.40;;;8.90;96.60;;;;;;5065244;28;20427;-70
2023/04/20 09:09:13;;;;;;;5.07;4.57;;;9.10;97.40;;;;;;5063352;28;20909;-70
2023/04/20 09:11:40;;;;;;;4.60;4.20;;;9.20;95.60;;;;;;5088470;22;20439;-74
2023/04/20 09:14:11;;;;;;;4.50;4.20;;;9.20;93.20;;;;;;5058236;28;20962;-74
2023/04/20 09:16:38;;;;;;;4.10;3.80;;;9.30;93.60;;;;;;5062769;28;20475;-74
2023/04/20 09:19:05;;;;;;;4.20;3.90;;;9.30;93.40;;;;;;5065468;28;20937;-73
2023/04/20 09:21:32;;;;;;;4.38;4.07;;;9.30;92.90;;;;;;5061780;28;20432;-73
2023/04/20 09:24:02;;;;;;;4.50;4.20;;;9.30;92.20;;;;;;5058645;28;20489;-73
2023/04/20 09:26:33;;;;;;;4.32;3.95;;;9.30;93.10;;;;;;5063467;28;20538;-73
2023/04/20 09:29:00;;;;;;;3.97;3.67;;;9.30;94.50;;;;;;5064931;28;20443;-73
2023/04/20 09:31:27;;;;;;;3.70;3.50;;;9.20;92.60;;;;;;5066742;28;20459;-73
2023/04/20 09:33:58;;;;;;;4.65;4.35;;;8.90;93.00;;;;;;5061040;28;20429;-72
2023/04/20 09:36:34;;;;;;;5.40;5.00;;;8.60;96.60;;;;;;5060748;28;20434;-73
2023/04/20 09:39:09;;;;;;;5.90;5.50;;;8.40;98.10;;;;;;5069068;28;20435;-73
2023/04/20 09:41:38;;;;;;;5.70;5.30;;;8.30;99.90;;;;;;5065942;28;21026;-71
2023/04/20 09:44:05;;;;;;;5.28;4.88;;;8.40;99.90;;;;;;5055418;28;20798;-68
2023/04/20 09:46:33;;;;;;;5.03;4.63;;;8.60;99.90;;;;;;5067832;28;20454;-70
2023/04/20 09:49:01;;;;;;;5.40;4.90;;;8.70;99.90;;;;;;5064340;28;20848;-70
2023/04/20 09:51:28;;;;;;;5.60;5.20;;;8.80;99.90;;;;;;5062625;28;20436;-71
2023/04/20 09:53:58;;;;;;;4.80;4.40;;;9.00;99.90;;;;;;5062123;28;20423;-69
2023/04/20 09:56:27;;;;;;;5.03;4.63;;;9.10;99.90;;;;;;5068092;28;20435;-70
2023/04/20 09:58:55;;;;;;;3.00;2.63;;;9.10;99.90;;;;;;5068560;28;20427;-69
2023/04/20 10:01:23;;;;;;;1.83;1.60;;;9.10;98.00;;;;;;5065439;28;20521;-70
2023/04/20 10:03:52;;;;;;;1.30;1.20;;;9.00;97.40;;;;;;5067936;28;20790;-70
2023/04/20 10:06:23;;;;;;;1.37;1.20;;;8.70;96.40;;;;;;5068177;28;20423;-69
2023/04/20 10:08:51;;;;;;;1.20;0.90;;;8.40;97.60;;;;;;5063139;28;21789;-71
2023/04/20 10:11:30;;;;;;;1.73;1.10;;;8.30;97.40;;;;;;5055780;28;20941;-69
2023/04/20 10:13:58;;;;;;;1.30;1.20;;;8.20;99.00;;;;;;5065783;28;20443;-69
2023/04/20 10:16:25;;;;;;;1.70;1.20;;;8.30;99.00;;;;;;5068691;28;20438;-69
2023/04/20 10:19:00;;;;;;;1.40;1.30;;;8.50;98.70;;;;;;5066912;28;20432;-70
2023/04/20 10:21:28;;;;;;;1.40;1.30;;;8.80;99.90;;;;;;5063155;28;20924;-69
2023/04/20 10:23:55;;;;;;;1.60;1.30;;;9.10;99.00;;;;;;5069489;28;20416;-69
2023/04/20 10:26:22;;;;;;;2.15;1.60;;;9.30;96.90;;;;;;5065142;28;20437;-70
2023/04/20 10:28:51;;;;;;;1.50;1.40;;;9.50;98.10;;;;;;5065347;28;20427;-69
2023/04/20 10:31:19;;;;;;;1.50;1.40;;;9.70;97.00;;;;;;5069520;28;20786;-69
2023/04/20 10:33:53;;;;;;;2.47;1.60;;;9.70;95.00;;;;;;5068172;28;20977;-69
2023/04/20 10:36:26;;;;;;;1.60;1.30;;;9.80;95.70;;;;;;5066095;28;20802;-69
2023/04/20 10:38:53;;;;;;;2.33;1.42;;;9.90;93.70;;;;;;5055716;28;20429;-69
2023/04/20 10:41:21;;;;;;;2.30;1.50;;;9.90;94.40;;;;;;5065467;28;20434;-69
2023/04/20 10:43:47;;;;;;;1.40;1.20;;;10.10;95.20;;;;;;5068711;28;20497;-69
2023/04/20 10:46:17;;;;;;;1.40;1.00;;;10.40;94.90;;;;;;5062461;28;20435;-68
2023/04/20 10:48:54;;;;;;;1.42;1.00;;;10.50;92.60;;;;;;5068757;28;20436;-69
2023/04/20 10:51:21;;;;;;;1.65;1.30;;;10.70;91.70;;;;;;5063288;28;20431;-75
2023/04/20 10:53:58;;;;;;;2.30;1.30;;;10.90;91.00;;;;;;5063600;28;20733;-76
2023/04/20 10:56:25;;;;;;;2.20;1.13;;;11.00;90.70;;;;;;5061251;28;20427;-74
2023/04/20 10:58:52;;;;;;;1.00;0.90;;;10.90;85.30;;;;;;5068158;28;20531;-74
2023/04/20 11:01:20;;;;;;;1.63;0.70;;;10.80;87.20;;;;;;5066656;28;20435;-76
2023/04/20 11:03:50;;;;;;;1.60;0.90;;;10.70;84.40;;;;;;5069110;28;20482;-72
2023/04/20 11:06:17;;;;;;;1.00;0.80;;;10.50;86.70;;;;;;5060149;28;20435;-72
2023/04/20 11:08:44;;;;;;;0.90;0.80;;;10.30;83.30;;;;;;5059270;28;20914;-72
2023/04/20 11:11:23;;;;;;;1.13;0.75;;;10.40;88.50;;;;;;5061157;28;20471;-72
2023/04/20 11:13:50;;;;;;;1.00;0.70;;;10.60;85.30;;;;;;5059896;28;21032;-72
2023/04/20 11:16:18;;;;;;;1.08;0.80;;;10.80;79.30;;;;;;5063777;28;20529;-74
2023/04/20 11:18:53;;;;;;;1.10;0.60;;;10.80;78.50;;;;;;5059662;28;20442;-74
2023/04/20 11:21:20;;;;;;;1.10;0.90;;;10.90;79.80;;;;;;5063449;28;20438;-74
2023/04/20 11:23:48;;;;;;;1.30;0.80;;;11.10;75.30;;;;;;5072446;28;20797;-74
2023/04/20 11:26:15;;;;;;;0.90;0.80;;;11.30;74.40;;;;;;5070779;28;20435;-74
2023/04/20 11:28:52;;;;;;;1.33;1.20;;;11.40;70.30;;;;;;5067336;28;20419;-74
2023/04/20 11:31:20;;;;;;;1.27;1.05;;;11.60;68.30;;;;;;5061344;28;21011;-74
2023/04/20 11:33:46;;;;;;;1.30;1.10;;;11.80;72.90;;;;;;5077774;28;20431;-74
2023/04/20 11:36:20;;;;;;;1.20;1.10;;;12.30;73.10;;;;;;5064786;28;20431;-74
2023/04/20 11:38:47;;;;;;;1.10;1.00;;;12.70;63.50;;;;;;5072055;28;20506;-76
2023/04/20 11:41:14;;;;;;;1.40;1.10;;;12.90;63.10;;;;;;5065482;28;20432;-75
2023/04/20 11:43:42;;;;;;;1.60;1.10;;;12.70;63.20;;;;;;5068216;28;20427;-74
2023/04/20 11:46:14;;;;;;;1.33;1.10;;;12.30;62.80;;;;;;5057574;28;20796;-74
2023/04/20 11:48:41;;;;;;;1.15;1.05;;;12.00;65.60;;;;;;5056817;28;20524;-75
2023/04/20 11:51:07;;;;;;;2.30;1.60;;;11.60;67.20;;;;;;5063178;28;20428;-75
2023/04/20 11:53:36;;;;;;;1.42;1.33;;;11.40;68.20;;;;;;5060941;28;20423;-75
2023/04/20 11:56:03;;;;;;;1.80;1.70;;;11.40;69.60;;;;;;5063520;28;20431;-76
2023/04/20 11:58:30;;;;;;;2.40;2.20;;;11.80;71.00;;;;;;5061399;28;20455;-74
2023/04/20 12:00:57;;;;;;;1.90;1.70;;;12.50;67.80;;;;;;5064235;28;20427;-75
2023/04/20 12:03:24;;;;;;;3.35;2.85;;;13.30;63.80;;;;;;5063693;28;20902;-74
2023/04/20 12:05:50;;;;;;;2.60;2.40;;;13.70;54.80;;;;;;5062552;28;20435;-75
2023/04/20 12:08:17;;;;;;;3.67;3.38;;;13.90;55.70;;;;;;5061688;28;20423;-74
2023/04/20 12:10:46;;;;;;;3.60;3.30;;;14.00;53.20;;;;;;5066573;28;20968;-75
2023/04/20 12:13:13;;;;;;;4.20;3.13;;;13.90;50.00;;;;;;5058405;28;21014;-76
2023/04/20 12:15:40;;;;;;;3.00;2.80;;;13.70;50.40;;;;;;5063319;28;20436;-75
2023/04/20 12:18:07;;;;;;;4.25;3.20;;;13.30;52.10;;;;;;5059774;28;20440;-75
2023/04/20 12:20:34;;;;;;;3.88;3.47;;;13.30;53.00;;;;;;5066643;28;20431;-69
2023/04/20 12:23:01;;;;;;;3.80;3.25;;;13.10;60.00;;;;;;5062448;28;20432;-70
2023/04/20 12:25:28;;;;;;;2.80;2.60;;;13.30;58.20;;;;;;5059218;28;20428;-76
2023/04/20 12:27:56;;;;;;;2.80;2.40;;;13.50;54.10;;;;;;5057061;28;20429;-76
2023/04/20 12:30:23;;;;;;;2.70;2.50;;;13.80;53.00;;;;;;5062676;28;20515;-75
2023/04/20 12:32:50;;;;;;;2.60;2.40;;;14.10;50.00;;;;;;5062731;28;20458;-76
2023/04/20 12:35:16;;;;;;;2.30;2.10;;;14.20;50.40;;;;;;5053245;28;20478;-77
2023/04/20 12:37:43;;;;;;;2.93;2.73;;;14.30;51.00;;;;;;5063318;28;20429;-75
2023/04/20 12:40:10;;;;;;;3.22;2.70;;;14.30;48.70;;;;;;5060537;28;20433;-77
2023/04/20 12:42:37;;;;;;;2.83;2.60;;;14.20;47.60;;;;;;5065264;28;20499;-76
2023/04/20 12:45:07;;;;;;;3.00;2.70;;;14.10;48.60;;;;;;5063909;28;20484;-74
2023/04/20 12:47:34;;;;;;;3.30;3.00;;;13.80;49.00;;;;;;5062719;28;20429;-76
2023/04/20 12:50:01;;;;;;;2.72;2.53;;;13.80;49.70;;;;;;5065014;28;20780;-75
2023/04/20 12:52:28;;;;;;;3.13;2.83;;;14.40;49.70;;;;;;5068773;28;20433;-75
2023/04/20 12:54:54;;;;;;;3.40;3.10;;;15.10;47.00;;;;;;5066524;28;20428;-77